sensor_id;sensor_type;location;lat;lon;timestamp;temperature;humidity
21744;DHT22;11034;48.556;9.342;2023-02-28T05:47:33;-2.70;99.90
21744;DHT22;11034;48.556;9.342;2023-02-28T05:50:02;-2.60;99.90
21744;DHT22;11034;48.556;9.342;2023-02-28T05:52:30;-2.60;99.90
21744;DHT22;11034;48.556;9.342;2023-02-28T05:55:00;-2.60;99.90
21744;DHT22;11034;48.556;9.342;2023-02-28T05:57:28;-2.50;99.90
21744;DHT22;11034;48.556;9.342;2023-02-28T05:59:56;-2.50;99.90
21744;DHT22;11034;48.556;9.342;2023-02-28T06:02:24;-2.50;99.90
21744;DHT22;11034;48.556;9.342;2023-02-28T06:04:53;-2.50;99.90
21744;DHT22;11034;48.556;9.342;2023-02-28T06:07:21;-2.50;99.90
21744;DHT22;11034;48.556;9.342;2023-02-28T06:09:49;-2.40;99.90
21744;DHT22;11034;48.556;9.342;2023-02-28T06:12:17;-2.50;99.90
21744;DHT22;11034;48.556;9.342;2023-02-28T06:14:45;-2.40;99.90
21744;DHT22;11034;48.556;9.342;2023-02-28T06:17:13;-2.40;99.90
21744;DHT22;11034;48.556;9.342;2023-02-28T06:19:41;-2.40;99.90
21744;DHT22;11034;48.556;9.342;2023-02-28T06:22:10;-2.30;99.90
21744;DHT22;11034;48.556;9.342;2023-02-28T06:24:38;-2.30;99.90
21744;DHT22;11034;48.556;9.342;2023-02-28T06:27:06;-2.30;99.90
21744;DHT22;11034;48.556;9.342;2023-02-28T06:30:06;-2.30;99.90
21744;DHT22;11034;48.556;9.342;2023-02-28T06:32:34;-2.30;99.90
21744;DHT22;11034;48.556;9.342;2023-02-28T06:35:17;-2.30;99.90
21744;DHT22;11034;48.556;9.342;2023-02-28T06:37:47;-2.30;99.90
21744;DHT22;11034;48.556;9.342;2023-02-28T06:40:15;-2.20;99.90
21744;DHT22;11034;48.556;9.342;2023-02-28T06:42:43;-2.20;99.90
21744;DHT22;11034;48.556;9.342;2023-02-28T06:45:12;-2.20;99.90
21744;DHT22;11034;48.556;9.342;2023-02-28T06:47:41;-2.10;99.90
21744;DHT22;11034;48.556;9.342;2023-02-28T06:50:11;-2.10;99.90
21744;DHT22;11034;48.556;9.342;2023-02-28T06:52:40;-2.00;99.90
21744;DHT22;11034;48.556;9.342;2023-02-28T06:55:10;-2.00;99.90
21744;DHT22;11034;48.556;9.342;2023-02-28T06:57:38;-2.00;99.90
21744;DHT22;11034;48.556;9.342;2023-02-28T07:00:09;-2.00;99.90
21744;DHT22;11034;48.556;9.342;2023-02-28T07:02:37;-1.90;99.90
21744;DHT22;11034;48.556;9.342;2023-02-28T07:05:06;-1.80;99.90
21744;DHT22;11034;48.556;9.342;2023-02-28T07:07:34;-1.80;99.90
21744;DHT22;11034;48.556;9.342;2023-02-28T07:10:04;-1.80;99.90
21744;DHT22;11034;48.556;9.342;2023-02-28T07:12:34;-1.70;99.90
21744;DHT22;11034;48.556;9.342;2023-02-28T07:15:02;-1.70;99.90
21744;DHT22;11034;48.556;9.342;2023-02-28T07:17:30;-1.70;99.90
21744;DHT22;11034;48.556;9.342;2023-02-28T07:19:58;-1.60;99.90
21744;DHT22;11034;48.556;9.342;2023-02-28T07:22:26;-1.60;99.90
21744;DHT22;11034;48.556;9.342;2023-02-28T07:24:55;-1.60;99.90
21744;DHT22;11034;48.556;9.342;2023-02-28T07:27:23;-1.60;99.90
21744;DHT22;11034;48.556;9.342;2023-02-28T07:29:53;-1.70;99.90
21744;DHT22;11034;48.556;9.342;2023-02-28T07:32:22;-1.70;99.90
21744;DHT22;11034;48.556;9.342;2023-02-28T07:34:50;-1.60;99.90
21744;DHT22;11034;48.556;9.342;2023-02-28T07:37:18;-1.60;99.90
21744;DHT22;11034;48.556;9.342;2023-02-28T07:39:46;-1.60;99.90
21744;DHT22;11034;48.556;9.342;2023-02-28T07:42:15;-1.60;99.90
21744;DHT22;11034;48.556;9.342;2023-02-28T07:44:46;-1.60;99.90
21744;DHT22;11034;48.556;9.342;2023-02-28T15:02:34;4.40;99.90
21744;DHT22;11034;48.556;9.342;2023-02-28T15:05:20;4.30;99.90
21744;DHT22;11034;48.556;9.342;2023-02-28T15:08:01;4.30;99.90
21744;DHT22;11034;48.556;9.342;2023-02-28T15:10:31;4.30;99.90
21744;DHT22;11034;48.556;9.342;2023-02-28T15:13:01;4.30;99.90
21744;DHT22;11034;48.556;9.342;2023-02-28T15:15:40;4.40;99.90
21744;DHT22;11034;48.556;9.342;2023-02-28T15:18:33;4.30;99.90
21744;DHT22;11034;48.556;9.342;2023-02-28T15:21:07;4.20;99.90
21744;DHT22;11034;48.556;9.342;2023-02-28T15:23:36;4.20;99.90
21744;DHT22;11034;48.556;9.342;2023-02-28T15:26:04;4.30;99.90
21744;DHT22;11034;48.556;9.342;2023-02-28T15:28:33;4.20;99.90
21744;DHT22;11034;48.556;9.342;2023-02-28T15:31:04;4.00;99.90
21744;DHT22;11034;48.556;9.342;2023-02-28T15:33:54;4.00;99.90
21744;DHT22;11034;48.556;9.342;2023-02-28T15:36:28;4.00;99.90
21744;DHT22;11034;48.556;9.342;2023-02-28T15:39:00;4.00;99.90
21744;DHT22;11034;48.556;9.342;2023-02-28T15:41:41;4.00;99.90
21744;DHT22;11034;48.556;9.342;2023-02-28T15:44:28;4.00;99.90
21744;DHT22;11034;48.556;9.342;2023-02-28T15:46:59;3.90;99.90
21744;DHT22;11034;48.556;9.342;2023-02-28T15:49:38;3.90;99.90
21744;DHT22;11034;48.556;9.342;2023-02-28T15:52:14;3.90;99.90
21744;DHT22;11034;48.556;9.342;2023-02-28T15:54:43;3.90;99.90
21744;DHT22;11034;48.556;9.342;2023-02-28T15:57:17;3.90;99.90
21744;DHT22;11034;48.556;9.342;2023-02-28T15:59:50;3.80;99.90
21744;DHT22;11034;48.556;9.342;2023-02-28T16:02:21;3.70;99.90
21744;DHT22;11034;48.556;9.342;2023-02-28T16:05:12;3.70;99.90
21744;DHT22;11034;48.556;9.342;2023-02-28T16:07:44;3.60;99.90
21744;DHT22;11034;48.556;9.342;2023-02-28T16:10:15;3.60;99.90
21744;DHT22;11034;48.556;9.342;2023-02-28T16:12:46;3.50;99.90
21744;DHT22;11034;48.556;9.342;2023-02-28T16:15:18;3.50;99.90
21744;DHT22;11034;48.556;9.342;2023-02-28T16:17:47;3.50;99.90
21744;DHT22;11034;48.556;9.342;2023-02-28T16:20:18;3.40;99.90
21744;DHT22;11034;48.556;9.342;2023-02-28T16:22:47;3.40;99.90
21744;DHT22;11034;48.556;9.342;2023-02-28T16:25:16;3.30;99.90
21744;DHT22;11034;48.556;9.342;2023-02-28T16:27:47;3.20;99.90
21744;DHT22;11034;48.556;9.342;2023-02-28T16:30:20;3.10;99.90
21744;DHT22;11034;48.556;9.342;2023-02-28T16:32:49;3.20;99.90
21744;DHT22;11034;48.556;9.342;2023-02-28T16:35:19;3.10;99.90
21744;DHT22;11034;48.556;9.342;2023-02-28T16:37:48;3.00;99.90
21744;DHT22;11034;48.556;9.342;2023-02-28T16:40:20;2.90;99.90
21744;DHT22;11034;48.556;9.342;2023-02-28T16:42:50;2.90;99.90
21744;DHT22;11034;48.556;9.342;2023-02-28T16:45:21;2.80;99.90
21744;DHT22;11034;48.556;9.342;2023-02-28T16:47:50;2.80;99.90
21744;DHT22;11034;48.556;9.342;2023-02-28T16:50:21;2.70;99.90
21744;DHT22;11034;48.556;9.342;2023-02-28T16:52:49;2.60;99.90
21744;DHT22;11034;48.556;9.342;2023-02-28T16:55:21;2.50;99.90
21744;DHT22;11034;48.556;9.342;2023-02-28T16:57:53;2.40;99.90
21744;DHT22;11034;48.556;9.342;2023-02-28T17:00:25;2.30;99.90
21744;DHT22;11034;48.556;9.342;2023-02-28T17:02:54;2.20;99.90
21744;DHT22;11034;48.556;9.342;2023-02-28T17:05:24;2.10;99.90
21744;DHT22;11034;48.556;9.342;2023-02-28T17:07:52;2.10;99.90
21744;DHT22;11034;48.556;9.342;2023-02-28T17:10:23;1.90;99.90
21744;DHT22;11034;48.556;9.342;2023-02-28T17:12:52;1.80;99.90
21744;DHT22;11034;48.556;9.342;2023-02-28T17:15:28;1.70;99.90
21744;DHT22;11034;48.556;9.342;2023-02-28T17:17:57;1.60;99.90
21744;DHT22;11034;48.556;9.342;2023-02-28T17:20:27;1.60;99.90
21744;DHT22;11034;48.556;9.342;2023-02-28T17:22:55;1.60;99.90
21744;DHT22;11034;48.556;9.342;2023-02-28T17:25:23;1.60;99.90
21744;DHT22;11034;48.556;9.342;2023-02-28T17:27:52;1.50;99.90
21744;DHT22;11034;48.556;9.342;2023-02-28T17:30:21;1.40;99.90
21744;DHT22;11034;48.556;9.342;2023-02-28T17:32:50;1.20;99.90
21744;DHT22;11034;48.556;9.342;2023-02-28T17:35:18;1.10;99.90
21744;DHT22;11034;48.556;9.342;2023-02-28T17:37:48;0.90;99.90
21744;DHT22;11034;48.556;9.342;2023-02-28T17:40:18;0.80;99.90
21744;DHT22;11034;48.556;9.342;2023-02-28T17:42:46;0.70;99.90
21744;DHT22;11034;48.556;9.342;2023-02-28T17:45:15;0.50;99.90
21744;DHT22;11034;48.556;9.342;2023-02-28T17:47:45;0.40;99.90
21744;DHT22;11034;48.556;9.342;2023-02-28T17:50:18;0.40;99.90
21744;DHT22;11034;48.556;9.342;2023-02-28T17:52:47;0.40;99.90
21744;DHT22;11034;48.556;9.342;2023-02-28T17:55:17;0.30;99.90
21744;DHT22;11034;48.556;9.342;2023-02-28T17:57:46;0.30;99.90
21744;DHT22;11034;48.556;9.342;2023-02-28T18:00:16;0.20;99.90
21744;DHT22;11034;48.556;9.342;2023-02-28T18:02:44;0.20;99.90
21744;DHT22;11034;48.556;9.342;2023-02-28T18:05:12;0.20;99.90
21744;DHT22;11034;48.556;9.342;2023-02-28T18:07:41;0.20;99.90
21744;DHT22;11034;48.556;9.342;2023-02-28T18:10:13;0.10;99.90
21744;DHT22;11034;48.556;9.342;2023-02-28T18:12:42;0.00;99.90
21744;DHT22;11034;48.556;9.342;2023-02-28T18:15:10;-0.10;99.90
21744;DHT22;11034;48.556;9.342;2023-02-28T18:17:38;-0.10;99.90
21744;DHT22;11034;48.556;9.342;2023-02-28T18:20:07;-0.20;99.90
21744;DHT22;11034;48.556;9.342;2023-02-28T18:22:36;-0.20;99.90
21744;DHT22;11034;48.556;9.342;2023-02-28T18:25:06;-0.20;99.90
21744;DHT22;11034;48.556;9.342;2023-02-28T18:27:36;-0.30;99.90
21744;DHT22;11034;48.556;9.342;2023-02-28T18:30:05;-0.20;99.90
21744;DHT22;11034;48.556;9.342;2023-02-28T18:32:33;-0.20;99.90
21744;DHT22;11034;48.556;9.342;2023-02-28T18:35:01;-0.20;99.90
21744;DHT22;11034;48.556;9.342;2023-02-28T18:37:29;-0.30;99.90
21744;DHT22;11034;48.556;9.342;2023-02-28T18:39:57;-0.30;99.90
21744;DHT22;11034;48.556;9.342;2023-02-28T18:42:25;-0.30;99.90
21744;DHT22;11034;48.556;9.342;2023-02-28T18:44:55;-0.30;99.90
21744;DHT22;11034;48.556;9.342;2023-02-28T18:47:23;-0.40;99.90
21744;DHT22;11034;48.556;9.342;2023-02-28T18:49:52;-0.50;99.90
21744;DHT22;11034;48.556;9.342;2023-02-28T18:52:20;-0.50;99.90
21744;DHT22;11034;48.556;9.342;2023-02-28T18:54:48;-0.60;99.90
21744;DHT22;11034;48.556;9.342;2023-02-28T18:57:16;-0.50;99.90
21744;DHT22;11034;48.556;9.342;2023-02-28T18:59:44;-0.70;99.90
21744;DHT22;11034;48.556;9.342;2023-02-28T19:02:13;-0.80;99.90
21744;DHT22;11034;48.556;9.342;2023-02-28T19:04:41;-0.80;99.90
21744;DHT22;11034;48.556;9.342;2023-02-28T19:07:09;-0.80;99.90
21744;DHT22;11034;48.556;9.342;2023-02-28T19:09:37;-0.70;99.90
21744;DHT22;11034;48.556;9.342;2023-02-28T19:12:05;-0.70;99.90
21744;DHT22;11034;48.556;9.342;2023-02-28T19:14:34;-0.70;99.90
21744;DHT22;11034;48.556;9.342;2023-02-28T19:17:01;-0.70;99.90
21744;DHT22;11034;48.556;9.342;2023-02-28T19:19:33;-0.70;99.90
21744;DHT22;11034;48.556;9.342;2023-02-28T19:22:01;-0.70;99.90
21744;DHT22;11034;48.556;9.342;2023-02-28T19:24:30;-0.70;99.90
21744;DHT22;11034;48.556;9.342;2023-02-28T19:26:58;-0.80;99.90
21744;DHT22;11034;48.556;9.342;2023-02-28T19:29:26;-0.80;99.90
21744;DHT22;11034;48.556;9.342;2023-02-28T19:31:54;-0.80;99.90
21744;DHT22;11034;48.556;9.342;2023-02-28T19:34:22;-0.90;99.90
21744;DHT22;11034;48.556;9.342;2023-02-28T19:36:52;-0.90;99.90
21744;DHT22;11034;48.556;9.342;2023-02-28T19:39:20;-1.00;99.90
21744;DHT22;11034;48.556;9.342;2023-02-28T19:41:48;-1.00;99.90
21744;DHT22;11034;48.556;9.342;2023-02-28T19:44:16;-1.00;99.90
21744;DHT22;11034;48.556;9.342;2023-02-28T19:46:44;-1.00;99.90
21744;DHT22;11034;48.556;9.342;2023-02-28T19:49:12;-1.00;99.90
21744;DHT22;11034;48.556;9.342;2023-02-28T19:51:40;-1.00;99.90
21744;DHT22;11034;48.556;9.342;2023-02-28T19:54:11;-0.90;99.90
21744;DHT22;11034;48.556;9.342;2023-02-28T19:56:39;-1.00;99.90
21744;DHT22;11034;48.556;9.342;2023-02-28T19:59:07;-1.00;99.90
21744;DHT22;11034;48.556;9.342;2023-02-28T20:01:47;-1.00;99.90
21744;DHT22;11034;48.556;9.342;2023-02-28T20:04:15;-1.00;99.90
21744;DHT22;11034;48.556;9.342;2023-02-28T20:06:43;-1.10;99.90
21744;DHT22;11034;48.556;9.342;2023-02-28T20:09:13;-1.10;99.90
21744;DHT22;11034;48.556;9.342;2023-02-28T20:11:42;-1.10;99.90
21744;DHT22;11034;48.556;9.342;2023-02-28T20:14:11;-1.10;99.90
21744;DHT22;11034;48.556;9.342;2023-02-28T20:16:40;-1.20;99.90
21744;DHT22;11034;48.556;9.342;2023-02-28T20:19:08;-1.30;99.90
21744;DHT22;11034;48.556;9.342;2023-02-28T20:21:36;-1.30;99.90
21744;DHT22;11034;48.556;9.342;2023-02-28T20:24:05;-1.30;99.90
21744;DHT22;11034;48.556;9.342;2023-02-28T20:26:34;-1.40;99.90
21744;DHT22;11034;48.556;9.342;2023-02-28T20:29:03;-1.40;99.90
21744;DHT22;11034;48.556;9.342;2023-02-28T20:31:31;-1.50;99.90
21744;DHT22;11034;48.556;9.342;2023-02-28T20:34:00;-1.50;99.90
21744;DHT22;11034;48.556;9.342;2023-02-28T20:36:28;-1.50;99.90
21744;DHT22;11034;48.556;9.342;2023-02-28T20:38:56;-1.50;99.90
21744;DHT22;11034;48.556;9.342;2023-02-28T20:41:26;-1.50;99.90
21744;DHT22;11034;48.556;9.342;2023-02-28T20:43:57;-1.60;99.90
21744;DHT22;11034;48.556;9.342;2023-02-28T20:46:28;-1.60;99.90
21744;DHT22;11034;48.556;9.342;2023-02-28T20:48:57;-1.60;99.90
21744;DHT22;11034;48.556;9.342;2023-02-28T20:51:25;-1.70;99.90
21744;DHT22;11034;48.556;9.342;2023-02-28T20:53:53;-1.70;99.90
21744;DHT22;11034;48.556;9.342;2023-02-28T20:56:21;-1.80;99.90
21744;DHT22;11034;48.556;9.342;2023-02-28T20:58:51;-1.80;99.90
